Time;durP1;ratioP1;P1;durP2;ratioP2;P2;SDS_P1;SDS_P2;PMS_P1;PMS_P2;Temp;Humidity;BMP_temperature;BMP_pressure;BME280_temperature;BME280_humidity;BME280_pressure;Samples;Min_cycle;Max_cycle;Signal;HPM_P1;HPM_P2
2021/12/28 00:00:43;;;;;;;5.87;4.70;;;;;;;5.41;100.00;94070.38;4938703;29;20196;-64
2021/12/28 00:03:09;;;;;;;5.13;4.53;;;;;;;5.42;100.00;94067.28;4922446;29;20300;-64
2021/12/28 00:05:34;;;;;;;6.63;4.93;;;;;;;5.44;100.00;94064.16;4939025;29;20268;-63
2021/12/28 00:08:00;;;;;;;6.43;4.40;;;;;;;5.44;100.00;94058.75;4922729;29;20196;-64
2021/12/28 00:10:25;;;;;;;6.53;4.47;;;;;;;5.43;100.00;94051.81;4973708;28;20196;-64
2021/12/28 00:12:50;;;;;;;5.37;4.40;;;;;;;5.42;100.00;94055.66;4981029;28;20238;-71
2021/12/28 00:17:59;;;;;;;4.73;4.00;;;;;;;5.44;100.00;94058.75;4998115;28;20183;-66
2021/12/28 00:20:35;;;;;;;4.67;3.87;;;;;;;5.44;100.00;94053.34;4980784;28;20191;-66
2021/12/28 00:23:04;;;;;;;4.70;3.70;;;;;;;5.45;100.00;94049.47;4981093;28;20210;-67
2021/12/28 00:25:29;;;;;;;5.10;3.63;;;;;;;5.45;100.00;94049.47;4980736;28;20188;-66
2021/12/28 00:27:55;;;;;;;4.63;3.70;;;;;;;5.46;100.00;94042.91;4980700;28;20258;-66
2021/12/28 00:30:21;;;;;;;4.37;3.60;;;;;;;5.42;100.00;94045.63;4980591;28;20188;-67
2021/12/28 00:32:52;;;;;;;6.07;3.80;;;;;;;5.42;100.00;94039.44;4980774;28;20205;-59
2021/12/28 00:35:17;;;;;;;5.23;3.43;;;;;;;5.43;100.00;94049.09;4980343;28;20225;-77
2021/12/28 00:37:43;;;;;;;4.90;3.63;;;;;;;5.44;100.00;94037.88;4980433;28;20215;-77
2021/12/28 00:40:09;;;;;;;3.77;3.20;;;;;;;5.41;100.00;94044.09;4980356;28;20231;-77
2021/12/28 00:42:34;;;;;;;4.23;3.47;;;;;;;5.41;100.00;94046.81;4979879;28;20211;-76
2021/12/28 00:44:59;;;;;;;4.60;3.33;;;;;;;5.40;100.00;94041.78;4980137;28;20192;-77
2021/12/28 00:47:25;;;;;;;3.80;2.77;;;;;;;5.42;100.00;94044.84;4980051;28;20219;-77
2021/12/28 00:49:50;;;;;;;3.67;3.00;;;;;;;5.40;100.00;94047.97;4980368;28;20277;-64
2021/12/28 00:52:15;;;;;;;3.77;3.10;;;;;;;5.40;100.00;94047.97;4980068;28;20339;-63
2021/12/28 00:54:41;;;;;;;3.93;3.13;;;;;;;5.44;100.00;94058.75;4980167;28;20284;-64
2021/12/28 00:57:06;;;;;;;4.07;2.93;;;;;;;5.42;100.00;94056.44;4980252;28;20234;-63
2021/12/28 00:59:32;;;;;;;4.27;3.00;;;;;;;5.41;100.00;94054.91;4980046;28;20195;-64
2021/12/28 01:01:57;;;;;;;4.37;3.00;;;;;;;5.42;100.00;94056.44;4979985;28;20278;-64
2021/12/28 01:04:24;;;;;;;4.07;2.73;;;;;;;5.39;100.00;94061.91;4980183;28;20212;-64
2021/12/28 01:06:50;;;;;;;3.83;3.07;;;;;;;5.41;100.00;94062.25;4979205;28;20346;-64
2021/12/28 01:09:15;;;;;;;3.30;2.97;;;;;;;5.38;100.00;94065.78;4980302;28;20211;-76
2021/12/28 01:11:42;;;;;;;3.97;2.70;;;;;;;5.38;100.00;94065.78;4980181;28;20206;-64
2021/12/28 01:14:08;;;;;;;3.53;2.60;;;;;;;5.35;100.00;94072.75;4979841;28;20227;-64
2021/12/28 01:16:33;;;;;;;3.60;2.80;;;;;;;5.34;100.00;94070.44;4997203;28;20220;-64
2021/12/28 01:18:58;;;;;;;3.67;2.60;;;;;;;5.30;100.00;94070.50;4979771;28;20196;-63
2021/12/28 01:21:24;;;;;;;4.30;2.73;;;;;;;5.26;100.00;94069.78;4980049;28;20215;-64
2021/12/28 01:23:49;;;;;;;3.83;2.43;;;;;;;5.20;100.00;94065.19;4979571;28;20195;-64
2021/12/28 01:26:14;;;;;;;2.57;2.27;;;;;;;5.16;100.00;94069.84;4979292;28;20192;-63
2021/12/28 01:28:40;;;;;;;2.40;2.17;;;;;;;5.11;100.00;94068.38;4979833;28;20192;-65
2021/12/28 01:31:05;;;;;;;3.70;2.37;;;;;;;5.07;100.00;94072.28;4979447;28;20189;-60
2021/12/28 01:33:30;;;;;;;2.97;2.30;;;;;;;5.02;100.00;94069.97;4979228;28;20219;-60
2021/12/28 01:35:58;;;;;;;2.70;2.20;;;;;;;4.98;100.00;94067.31;4979464;28;20200;-60
2021/12/28 01:38:24;;;;;;;4.67;2.87;;;;;;;4.96;100.00;94069.63;4979911;28;20234;-60
2021/12/28 01:40:50;;;;;;;2.13;1.93;;;;;;;4.93;100.00;94062.34;4979644;28;20210;-60
2021/12/28 01:43:20;;;;;;;2.83;2.20;;;;;;;4.89;100.00;94060.84;4979379;28;20185;-60
2021/12/28 01:45:45;;;;;;;2.83;2.10;;;;;;;4.87;100.00;94057.75;4979658;28;20192;-63
2021/12/28 01:48:15;;;;;;;2.53;2.20;;;;;;;4.82;100.00;94055.47;4979257;28;20184;-60
2021/12/28 01:50:41;;;;;;;2.37;2.00;;;;;;;4.78;100.00;94062.88;4979079;28;20283;-60
2021/12/28 01:53:08;;;;;;;2.57;2.03;;;;;;;4.71;100.00;94060.22;4978695;28;20191;-61
2021/12/28 01:55:36;;;;;;;2.63;2.10;;;;;;;4.63;100.00;94050.63;4979060;28;20179;-60
2021/12/28 01:58:03;;;;;;;2.37;2.00;;;;;;;4.59;100.00;94039.81;4996251;28;20227;-60
2021/12/28 02:00:29;;;;;;;2.73;1.80;;;;;;;4.52;100.00;94033.72;4978856;28;20192;-60
2021/12/28 02:02:54;;;;;;;2.20;1.90;;;;;;;4.47;100.00;94028.72;4979131;28;20208;-60
2021/12/28 02:05:20;;;;;;;2.00;1.60;;;;;;;4.42;100.00;94021.03;4979036;28;20221;-66
2021/12/28 02:07:45;;;;;;;3.00;1.67;;;;;;;4.40;100.00;94024.16;4978544;28;20242;-67
2021/12/28 02:10:11;;;;;;;3.20;2.00;;;;;;;4.39;100.00;94021.84;4978818;28;20192;-67
2021/12/28 02:12:36;;;;;;;2.23;2.03;;;;;;;4.33;100.00;94028.84;4978950;28;20250;-67
2021/12/28 02:15:06;;;;;;;2.40;1.80;;;;;;;4.31;100.00;94020.34;4978604;28;20210;-67
2021/12/28 02:17:35;;;;;;;2.07;1.80;;;;;;;4.26;100.00;94009.97;4978719;28;20195;-67
2021/12/28 02:20:06;;;;;;;1.97;1.67;;;;;;;4.24;100.00;94009.59;4978241;28;20215;-67
2021/12/28 02:22:31;;;;;;;2.57;1.97;;;;;;;4.19;100.00;94024.28;4978538;28;20211;-66
2021/12/28 02:24:57;;;;;;;2.47;1.60;;;;;;;4.14;100.00;94015.84;4979057;28;20282;-60
2021/12/28 02:27:25;;;;;;;3.40;1.90;;;;;;;4.09;100.00;94013.56;4978570;28;20270;-59
2021/12/28 02:29:51;;;;;;;1.67;1.57;;;;;;;4.02;100.00;94000.88;4978496;28;20192;-58
2021/12/28 02:32:16;;;;;;;2.30;1.70;;;;;;;4.00;100.00;94010.53;4978358;28;20192;-58
2021/12/28 02:34:42;;;;;;;4.90;2.90;;;;;;;3.97;100.00;94016.72;4978399;28;20246;-58
2021/12/28 02:37:07;;;;;;;4.83;3.20;;;;;;;3.94;100.00;94012.13;4979034;28;20195;-58
2021/12/28 02:39:32;;;;;;;3.30;2.17;;;;;;;3.88;100.00;94002.88;4978683;28;20191;-59
2021/12/28 02:41:58;;;;;;;1.70;1.60;;;;;;;3.83;100.00;94008.72;4977942;28;20239;-60
2021/12/28 02:44:23;;;;;;;2.77;2.20;;;;;;;3.80;100.00;93996.00;4978580;28;20192;-71
2021/12/28 02:46:48;;;;;;;2.10;1.90;;;;;;;3.79;100.00;93989.06;4978112;28;20191;-71
2021/12/28 02:49:14;;;;;;;3.40;1.70;;;;;;;3.76;100.00;93989.84;4978404;28;20275;-71
2021/12/28 02:51:39;;;;;;;1.70;1.60;;;;;;;3.74;100.00;93998.34;4977906;28;20195;-71
2021/12/28 02:54:04;;;;;;;2.17;1.70;;;;;;;3.70;100.00;93991.41;4978070;28;20590;-71
2021/12/28 02:56:30;;;;;;;2.83;1.53;;;;;;;3.66;100.00;93996.84;4977621;28;20195;-71
2021/12/28 02:58:55;;;;;;;1.90;1.80;;;;;;;3.61;100.00;93989.16;4978645;28;20278;-73
2021/12/28 03:01:27;;;;;;;2.53;1.70;;;;;;;3.58;100.00;93981.06;4978422;28;20334;-64
2021/12/28 03:04:03;;;;;;;1.83;1.50;;;;;;;3.53;100.00;93983.03;4977920;28;20195;-72
2021/12/28 03:06:30;;;;;;;2.33;1.70;;;;;;;3.47;100.00;93976.50;4978190;28;20191;-72
2021/12/28 03:08:58;;;;;;;2.50;1.63;;;;;;;3.41;100.00;93956.50;4978529;28;20285;-72
2021/12/28 03:11:25;;;;;;;2.23;1.53;;;;;;;3.37;100.00;93963.84;4978363;28;20198;-72
2021/12/28 03:13:53;;;;;;;2.83;1.67;;;;;;;3.33;100.00;93963.09;4977602;28;20191;-72
2021/12/28 03:16:21;;;;;;;1.53;1.30;;;;;;;3.31;100.00;93961.91;4977667;28;20176;-72
2021/12/28 03:18:47;;;;;;;1.63;1.43;;;;;;;3.30;100.00;93953.09;4977695;28;20187;-60
2021/12/28 03:21:14;;;;;;;1.43;1.23;;;;;;;3.29;100.00;93948.81;4977925;28;20183;-66
2021/12/28 03:23:41;;;;;;;3.03;1.60;;;;;;;3.23;100.00;93953.09;4978186;28;20231;-66
2021/12/28 03:26:08;;;;;;;2.73;1.50;;;;;;;3.23;100.00;93946.94;4977779;28;20188;-66
2021/12/28 03:28:36;;;;;;;2.13;1.30;;;;;;;3.19;100.00;93944.28;4978266;28;20187;-66
2021/12/28 03:31:05;;;;;;;1.30;1.20;;;;;;;3.19;100.00;93941.56;4979287;28;20184;-67
2021/12/28 03:33:35;;;;;;;1.57;1.47;;;;;;;3.12;100.00;93936.19;4982297;28;20273;-66
2021/12/28 03:36:00;;;;;;;2.43;1.50;;;;;;;3.09;100.00;93942.38;4981595;28;20279;-65
2021/12/28 03:38:26;;;;;;;1.50;1.23;;;;;;;3.05;100.00;93938.94;4981392;28;20219;-63
2021/12/28 03:40:52;;;;;;;1.47;1.20;;;;;;;2.99;100.00;93927.00;4981385;28;20195;-74
2021/12/28 03:43:18;;;;;;;4.40;1.57;;;;;;;2.97;100.00;93929.34;4981869;28;20215;-74
2021/12/28 03:45:44;;;;;;;1.57;1.27;;;;;;;2.95;100.00;93934.34;4981545;28;20183;-74
2021/12/28 03:48:10;;;;;;;1.47;1.10;;;;;;;2.95;100.00;93926.25;4981869;28;20195;-74
2021/12/28 03:50:36;;;;;;;2.03;1.40;;;;;;;2.92;100.00;93921.63;4981227;28;20195;-74
2021/12/28 03:53:03;;;;;;;1.47;1.20;;;;;;;2.90;100.00;93929.34;4981503;28;20254;-75
2021/12/28 03:55:29;;;;;;;1.47;1.20;;;;;;;2.87;100.00;93930.13;4981249;28;20192;-59
2021/12/28 03:57:56;;;;;;;1.93;1.40;;;;;;;2.84;100.00;93925.50;4980897;28;20191;-68
2021/12/28 04:00:23;;;;;;;2.07;1.30;;;;;;;2.79;100.00;93925.91;4981188;28;20215;-67
2021/12/28 04:02:49;;;;;;;2.30;1.27;;;;;;;2.77;100.00;93922.09;4981057;28;20227;-67
2021/12/28 04:05:16;;;;;;;2.73;1.30;;;;;;;2.74;100.00;93920.91;4981467;28;20196;-68
2021/12/28 04:07:42;;;;;;;6.30;1.50;;;;;;;2.72;100.00;93920.56;4981413;28;20223;-67
2021/12/28 04:10:09;;;;;;;2.33;1.20;;;;;;;2.70;100.00;93922.09;4980565;28;20195;-68
2021/12/28 04:12:35;;;;;;;2.47;1.23;;;;;;;2.67;100.00;93920.97;4980933;28;20195;-64
2021/12/28 04:15:00;;;;;;;1.40;1.13;;;;;;;2.67;100.00;93915.56;4980573;28;20195;-74
2021/12/28 04:17:28;;;;;;;2.57;1.43;;;;;;;2.64;100.00;93916.34;4980953;28;20278;-67
2021/12/28 04:19:54;;;;;;;2.07;1.20;;;;;;;2.61;100.00;93906.34;4981311;28;20199;-67
2021/12/28 04:22:20;;;;;;;1.90;1.23;;;;;;;2.59;100.00;93902.50;4980742;28;20316;-67
2021/12/28 04:24:45;;;;;;;2.50;1.17;;;;;;;2.59;100.00;93903.25;4997932;28;20186;-67
2021/12/28 04:27:11;;;;;;;2.30;1.30;;;;;;;2.55;100.00;93907.88;4980759;28;20196;-67
2021/12/28 04:29:36;;;;;;;1.70;1.40;;;;;;;2.55;100.00;93905.19;4980697;28;20279;-68
2021/12/28 04:32:02;;;;;;;1.33;1.23;;;;;;;2.55;100.00;93905.19;4980621;28;20192;-68
2021/12/28 04:34:28;;;;;;;1.43;1.17;;;;;;;2.54;100.00;93895.59;4980380;28;20203;-71
2021/12/28 04:36:53;;;;;;;1.80;1.33;;;;;;;2.52;100.00;93887.09;4980474;28;20198;-71
2021/12/28 04:39:19;;;;;;;1.60;1.10;;;;;;;2.51;100.00;93887.50;4980747;28;20190;-71
2021/12/28 04:41:44;;;;;;;1.93;1.40;;;;;;;2.52;100.00;93870.94;4979496;28;20227;-71
2021/12/28 04:44:12;;;;;;;1.70;1.23;;;;;;;2.51;100.00;93880.19;4980052;28;20215;-71
2021/12/28 04:46:38;;;;;;;2.63;1.30;;;;;;;2.47;100.00;93863.28;4980517;28;20288;-71
2021/12/28 04:49:04;;;;;;;2.10;1.30;;;;;;;2.49;100.00;93871.75;4980714;28;20219;-74
2021/12/28 04:51:29;;;;;;;2.17;1.40;;;;;;;2.49;100.00;93865.59;4980354;28;20206;-71
2021/12/28 04:53:56;;;;;;;1.63;1.20;;;;;;;2.53;100.00;93875.19;4980373;28;20210;-64
2021/12/28 04:56:23;;;;;;;1.70;1.20;;;;;;;2.51;100.00;93869.41;4979989;28;20231;-64
2021/12/28 04:58:48;;;;;;;2.90;1.17;;;;;;;2.52;100.00;93862.13;4980167;28;20258;-63
2021/12/28 05:01:14;;;;;;;3.47;1.30;;;;;;;2.50;100.00;93856.34;4980042;28;20196;-64
2021/12/28 05:03:39;;;;;;;1.20;1.07;;;;;;;2.49;100.00;93855.59;4979779;28;20241;-65
2021/12/28 05:06:05;;;;;;;3.23;1.53;;;;;;;2.47;100.00;93852.50;4979557;28;20237;-64
2021/12/28 05:08:30;;;;;;;2.53;1.40;;;;;;;2.49;100.00;93854.81;4979853;28;20220;-71
2021/12/28 05:10:56;;;;;;;5.87;1.50;;;;;;;2.51;100.00;93855.19;4979961;28;20196;-59
2021/12/28 05:13:23;;;;;;;1.80;1.17;;;;;;;2.49;100.00;93850.19;4980316;28;20291;-59
2021/12/28 05:15:49;;;;;;;2.57;1.77;;;;;;;2.47;100.00;93849.81;4979489;28;20297;-59
2021/12/28 05:18:15;;;;;;;3.20;1.20;;;;;;;2.49;100.00;93857.50;4979576;28;20188;-58
2021/12/28 05:20:41;;;;;;;2.67;1.30;;;;;;;2.46;100.00;93850.97;4979800;28;20245;-59
2021/12/28 05:23:07;;;;;;;2.07;1.23;;;;;;;2.45;100.00;93849.41;4979542;28;20354;-59
2021/12/28 05:25:33;;;;;;;2.37;1.20;;;;;;;2.44;100.00;93842.50;4979978;28;20194;-59
2021/12/28 05:28:00;;;;;;;2.77;1.20;;;;;;;2.44;100.00;93844.44;4979620;28;20194;-73
2021/12/28 05:30:26;;;;;;;1.67;1.50;;;;;;;2.41;100.00;93840.59;4979177;28;20245;-66
2021/12/28 05:32:51;;;;;;;3.37;1.40;;;;;;;2.41;100.00;93829.81;4979414;28;20215;-66
2021/12/28 05:35:16;;;;;;;2.50;1.20;;;;;;;2.42;100.00;93825.97;4979269;28;20180;-66
2021/12/28 05:37:42;;;;;;;2.50;1.30;;;;;;;2.42;100.00;93839.44;4979451;28;20201;-66
2021/12/28 05:40:10;;;;;;;2.53;1.70;;;;;;;2.45;100.00;93833.25;4979420;28;20191;-66
2021/12/28 05:42:36;;;;;;;2.27;1.93;;;;;;;2.46;100.00;93824.03;4979806;28;20210;-66
2021/12/28 05:45:02;;;;;;;1.27;1.17;;;;;;;2.48;100.00;93823.66;4979377;28;20245;-59
2021/12/28 05:47:27;;;;;;;2.03;1.20;;;;;;;2.47;100.00;93833.66;4979378;28;20239;-59
2021/12/28 05:49:52;;;;;;;1.57;1.20;;;;;;;2.48;100.00;93821.72;4979906;28;20195;-64
2021/12/28 05:52:18;;;;;;;1.60;0.97;;;;;;;2.48;100.00;93824.41;4979106;28;20195;-64
2021/12/28 05:54:43;;;;;;;3.23;1.20;;;;;;;2.49;100.00;93823.25;4979078;28;20221;-65
2021/12/28 05:57:09;;;;;;;1.50;1.20;;;;;;;2.51;100.00;93825.53;4978915;28;20275;-64
2021/12/28 05:59:35;;;;;;;1.57;1.10;;;;;;;2.54;100.00;93814.78;4978850;28;20191;-64
2021/12/28 06:02:00;;;;;;;2.50;1.37;;;;;;;2.54;100.00;93814.78;4979161;28;20207;-65
2021/12/28 06:04:26;;;;;;;1.63;1.10;;;;;;;2.60;100.00;93818.59;4978834;28;20275;-64
2021/12/28 06:06:51;;;;;;;1.97;1.10;;;;;;;2.65;100.00;93820.09;4978744;28;20188;-65
2021/12/28 06:09:17;;;;;;;1.80;1.30;;;;;;;2.67;100.00;93821.28;4995569;28;20270;-64
2021/12/28 06:11:42;;;;;;;3.57;1.40;;;;;;;2.70;100.00;93819.72;4978340;28;20190;-64
2021/12/28 06:14:07;;;;;;;2.50;1.10;;;;;;;2.76;100.00;93821.59;4978995;28;20196;-64
2021/12/28 06:16:34;;;;;;;1.97;1.30;;;;;;;2.79;100.00;93815.44;4978868;28;20227;-64
2021/12/28 06:19:01;;;;;;;1.60;1.20;;;;;;;2.83;100.00;93821.56;4978741;28;20191;-65
2021/12/28 06:21:30;;;;;;;1.73;1.20;;;;;;;2.89;100.00;93809.22;4978516;28;20250;-68
2021/12/28 06:23:56;;;;;;;2.00;1.20;;;;;;;2.88;100.00;93813.06;4978468;28;20215;-65
2021/12/28 06:26:21;;;;;;;3.63;1.30;;;;;;;2.88;100.00;93818.47;4978718;28;20188;-58
2021/12/28 06:28:47;;;;;;;2.77;1.20;;;;;;;2.91;100.00;93839.25;4977716;28;20202;-59
2021/12/28 06:31:12;;;;;;;2.53;1.30;;;;;;;2.95;100.00;93845.38;4978906;28;20219;-61
2021/12/28 06:33:37;;;;;;;4.73;1.80;;;;;;;3.00;100.00;93842.28;4978325;28;20331;-60
2021/12/28 06:36:05;;;;;;;2.80;1.30;;;;;;;2.99;100.00;93829.94;4978541;28;20227;-58
2021/12/28 06:38:30;;;;;;;2.50;1.70;;;;;;;3.00;100.00;93831.50;4978311;28;20179;-58
2021/12/28 06:40:56;;;;;;;3.93;1.57;;;;;;;3.02;100.00;93831.88;4978917;28;20188;-72
2021/12/28 06:43:21;;;;;;;5.63;1.37;;;;;;;3.06;100.00;93843.41;4978620;28;20352;-59
2021/12/28 06:45:46;;;;;;;2.30;1.37;;;;;;;3.11;100.00;93847.63;4978452;28;20187;-60
2021/12/28 06:48:12;;;;;;;1.73;1.43;;;;;;;3.12;100.00;93839.13;4978766;28;20187;-60
2021/12/28 06:50:37;;;;;;;2.17;1.40;;;;;;;3.14;100.00;93844.88;4978239;28;20188;-59
2021/12/28 06:53:03;;;;;;;2.03;1.40;;;;;;;3.15;100.00;93845.66;4978164;28;20282;-62
2021/12/28 06:55:28;;;;;;;3.40;1.30;;;;;;;3.16;100.00;93849.88;4977961;28;20213;-61
2021/12/28 06:57:53;;;;;;;1.77;1.40;;;;;;;3.19;100.00;93839.09;4977945;28;20191;-62
2021/12/28 07:00:19;;;;;;;1.30;1.20;;;;;;;3.20;100.00;93843.31;4978188;28;20203;-73
2021/12/28 07:02:45;;;;;;;1.83;1.33;;;;;;;3.22;100.00;93841.00;4977831;28;20285;-64
2021/12/28 07:05:11;;;;;;;2.37;1.30;;;;;;;3.28;100.00;93842.13;4977245;28;20186;-63
2021/12/28 07:07:38;;;;;;;1.97;1.60;;;;;;;3.34;100.00;93845.16;4978022;28;20198;-63
2021/12/28 07:10:05;;;;;;;2.77;1.40;;;;;;;3.36;100.00;93840.91;4977856;28;20187;-64
2021/12/28 07:12:31;;;;;;;3.83;1.60;;;;;;;3.43;100.00;93832.75;4977675;28;20184;-61
2021/12/28 07:14:56;;;;;;;2.07;1.40;;;;;;;3.54;100.00;93819.22;4978384;28;20249;-63
2021/12/28 07:17:21;;;;;;;3.70;1.83;;;;;;;3.54;100.00;93811.88;4978302;28;20212;-59
2021/12/28 07:19:47;;;;;;;2.23;1.97;;;;;;;3.47;100.00;93817.31;4977980;28;20191;-69
2021/12/28 07:22:12;;;;;;;2.77;1.60;;;;;;;3.43;100.00;93821.22;4977649;28;20208;-66
2021/12/28 07:24:38;;;;;;;2.40;1.60;;;;;;;3.41;100.00;93818.91;4978081;28;20206;-65
2021/12/28 07:27:04;;;;;;;2.17;1.60;;;;;;;3.40;100.00;93811.22;4977471;28;20184;-70
2021/12/28 07:29:29;;;;;;;2.07;1.50;;;;;;;3.40;100.00;93820.06;4977999;28;20287;-69
2021/12/28 07:31:54;;;;;;;2.17;1.23;;;;;;;3.43;100.00;93807.75;4978084;28;20187;-68
2021/12/28 07:34:20;;;;;;;1.77;1.50;;;;;;;3.44;100.00;93799.25;4977645;28;20207;-68
2021/12/28 07:36:45;;;;;;;2.23;1.20;;;;;;;3.47;100.00;93801.13;4978254;28;20183;-69
2021/12/28 07:39:11;;;;;;;4.07;1.80;;;;;;;3.42;100.00;93798.88;4977609;28;20188;-64
2021/12/28 07:41:36;;;;;;;1.90;1.50;;;;;;;3.48;100.00;93818.88;4977242;28;20200;-63
2021/12/28 07:44:02;;;;;;;3.53;1.50;;;;;;;3.56;100.00;93813.44;4977549;28;20193;-64
2021/12/28 07:46:28;;;;;;;4.23;1.57;;;;;;;3.60;100.00;93804.13;4977711;28;20188;-64
2021/12/28 07:48:53;;;;;;;2.50;1.40;;;;;;;3.58;100.00;93825.34;4977613;28;20188;-62
2021/12/28 07:51:18;;;;;;;3.03;1.70;;;;;;;3.67;100.00;93841.09;4977287;28;20211;-63
2021/12/28 07:53:44;;;;;;;1.97;1.40;;;;;;;3.66;100.00;93844.94;4977612;28;20192;-66
2021/12/28 07:56:09;;;;;;;3.83;2.40;;;;;;;3.70;100.00;93851.06;4977426;28;20283;-59
2021/12/28 07:58:34;;;;;;;3.43;1.50;;;;;;;3.75;100.00;93858.75;4977513;28;20316;-77
2021/12/28 08:01:00;;;;;;;2.17;1.40;;;;;;;3.78;100.00;93864.13;4977768;28;20184;-71
2021/12/28 08:03:25;;;;;;;3.23;1.57;;;;;;;3.83;100.00;93873.72;4977308;28;20215;-70
2021/12/28 08:05:52;;;;;;;1.97;1.33;;;;;;;3.82;100.00;93872.22;4977224;28;20188;-75
2021/12/28 08:08:17;;;;;;;1.97;1.67;;;;;;;3.91;100.00;93851.69;4977725;28;20207;-75
2021/12/28 08:10:44;;;;;;;1.53;1.13;;;;;;;3.98;100.00;93864.34;4977617;28;20199;-69
2021/12/28 08:13:10;;;;;;;4.87;2.93;;;;;;;4.04;100.00;93876.28;4977210;28;20194;-59
2021/12/28 08:15:36;;;;;;;2.40;1.30;;;;;;;4.12;100.00;93866.94;4977642;28;20275;-59
2021/12/28 08:18:03;;;;;;;1.80;1.30;;;;;;;4.16;100.00;93870.38;4980272;28;20220;-59
2021/12/28 08:20:29;;;;;;;1.90;1.50;;;;;;;4.22;100.00;93880.34;4980801;28;20195;-58
2021/12/28 08:22:56;;;;;;;1.80;1.50;;;;;;;4.28;100.00;93883.38;4981162;28;20207;-58
2021/12/28 08:25:22;;;;;;;1.73;1.63;;;;;;;4.32;100.00;93884.09;4981201;28;20195;-58
2021/12/28 08:27:48;;;;;;;1.57;1.40;;;;;;;4.37;100.00;93870.19;4980682;28;20188;-59
2021/12/28 08:30:14;;;;;;;1.70;1.37;;;;;;;4.41;100.00;93862.81;4980819;28;20199;-75
2021/12/28 08:32:40;;;;;;;2.13;1.37;;;;;;;4.48;100.00;93868.13;4980429;28;20215;-68
2021/12/28 08:35:06;;;;;;;1.67;1.37;;;;;;;4.56;100.00;93866.88;4980402;28;20188;-66
2021/12/28 08:37:32;;;;;;;3.70;1.70;;;;;;;4.65;100.00;93883.38;4980274;28;20238;-64
2021/12/28 08:39:58;;;;;;;2.13;1.63;;;;;;;4.71;100.00;93896.09;4980719;28;20207;-63
2021/12/28 08:42:24;;;;;;;2.47;1.37;;;;;;;4.76;100.00;93889.44;4980149;28;20219;-64
2021/12/28 08:44:50;;;;;;;2.00;1.70;;;;;;;4.83;100.00;93878.56;4980805;28;20183;-63
2021/12/28 08:47:16;;;;;;;2.33;1.50;;;;;;;4.86;100.00;93883.94;4980714;28;20242;-64
2021/12/28 08:49:42;;;;;;;1.87;1.50;;;;;;;4.90;100.00;93889.28;4980075;28;20195;-66
2021/12/28 08:52:07;;;;;;;3.87;2.27;;;;;;;4.92;100.00;93886.97;4980053;28;20188;-67
2021/12/28 08:54:33;;;;;;;9.20;4.70;;;;;;;4.96;100.00;93887.69;4980079;28;20197;-67
2021/12/28 08:56:59;;;;;;;3.87;1.90;;;;;;;5.01;100.00;93889.94;4980021;28;20240;-78
2021/12/28 08:59:25;;;;;;;3.17;1.80;;;;;;;5.06;100.00;93897.63;4980547;28;20275;-68
2021/12/28 09:01:50;;;;;;;3.63;2.00;;;;;;;5.07;100.00;93889.06;4979997;28;20208;-67
2021/12/28 09:04:17;;;;;;;3.53;2.10;;;;;;;5.05;100.00;93899.56;4997091;28;20180;-68
2021/12/28 09:06:45;;;;;;;2.63;1.70;;;;;;;5.06;100.00;93897.63;4979979;28;20192;-62
2021/12/28 09:09:11;;;;;;;3.83;2.10;;;;;;;5.07;100.00;93904.56;4979902;28;20255;-70
2021/12/28 09:11:36;;;;;;;4.43;2.27;;;;;;;5.07;100.00;93901.84;4980288;28;20226;-69
2021/12/28 09:14:02;;;;;;;4.13;2.10;;;;;;;5.09;100.00;93907.63;4979637;28;20199;-65
2021/12/28 09:16:28;;;;;;;5.03;2.17;;;;;;;5.08;100.00;93909.56;4979566;28;20196;-66
2021/12/28 09:18:54;;;;;;;3.73;2.00;;;;;;;5.08;100.00;93916.91;4979484;28;20220;-70
2021/12/28 09:21:19;;;;;;;8.47;5.27;;;;;;;5.11;100.00;93916.09;4979713;28;20196;-67
2021/12/28 09:23:44;;;;;;;3.50;2.13;;;;;;;5.12;100.00;93923.03;4979556;28;20184;-67
2021/12/28 09:26:10;;;;;;;4.23;2.50;;;;;;;5.11;100.00;93932.34;4980119;28;20543;-64
2021/12/28 09:28:35;;;;;;;3.07;2.07;;;;;;;5.13;100.00;93930.00;4978655;28;20188;-71
2021/12/28 09:31:01;;;;;;;3.83;2.03;;;;;;;5.17;100.00;93930.72;4979589;28;20188;-70
2021/12/28 09:33:26;;;;;;;4.40;2.20;;;;;;;5.22;100.00;93928.34;4979357;28;20297;-74
2021/12/28 09:35:52;;;;;;;6.53;3.27;;;;;;;5.33;100.00;93928.19;4979675;28;20184;-68
2021/12/28 09:38:19;;;;;;;4.50;2.47;;;;;;;5.41;100.00;93943.19;4979128;28;20188;-73
2021/12/28 09:40:46;;;;;;;6.20;3.90;;;;;;;5.50;100.00;93938.06;4979694;28;20192;-70
2021/12/28 09:43:13;;;;;;;4.50;2.13;;;;;;;5.55;100.00;93932.16;4979058;28;20211;-80
2021/12/28 09:45:38;;;;;;;3.97;2.57;;;;;;;5.61;100.00;93933.25;4979970;28;20196;-76
2021/12/28 09:48:04;;;;;;;3.60;2.70;;;;;;;5.65;100.00;93915.78;4979322;28;20191;-67
2021/12/28 09:50:31;;;;;;;5.50;2.70;;;;;;;5.64;100.00;93908.06;4979112;28;20224;-68
2021/12/28 09:52:56;;;;;;;2.40;1.97;;;;;;;5.62;100.00;93918.53;4979120;28;20257;-64
2021/12/28 09:55:24;;;;;;;2.83;2.33;;;;;;;5.58;100.00;93920.53;4979454;28;20225;-66
2021/12/28 09:57:50;;;;;;;2.30;1.80;;;;;;;5.50;100.00;93902.84;4979079;28;20192;-65
2021/12/28 10:00:17;;;;;;;3.10;1.63;;;;;;;5.43;100.00;93905.66;4978969;28;20223;-66
2021/12/28 10:02:43;;;;;;;2.50;1.47;;;;;;;5.36;100.00;93916.56;4979127;28;20259;-60
2021/12/28 10:05:15;;;;;;;5.53;2.30;;;;;;;5.36;100.00;93916.56;4979129;28;20191;-60
2021/12/28 10:07:47;;;;;;;3.30;2.20;;;;;;;5.40;100.00;93918.06;4979155;28;20191;-62
2021/12/28 10:10:14;;;;;;;5.60;2.67;;;;;;;5.42;100.00;93909.50;4978805;28;20192;-63
2021/12/28 10:12:42;;;;;;;5.13;2.20;;;;;;;5.50;100.00;93905.56;4979245;28;20199;-62
2021/12/28 10:15:12;;;;;;;2.27;2.00;;;;;;;5.54;100.00;93895.47;4978431;28;20187;-63
2021/12/28 10:17:41;;;;;;;3.53;2.20;;;;;;;5.58;100.00;93896.91;4979055;28;20188;-62
2021/12/28 10:20:13;;;;;;;2.87;1.40;;;;;;;5.63;100.00;93906.53;4979119;28;20195;-63
2021/12/28 10:22:48;;;;;;;4.97;3.63;;;;;;;5.62;100.00;93908.50;4978689;28;20219;-64
2021/12/28 10:25:26;;;;;;;3.47;1.73;;;;;;;5.62;100.00;93913.13;4978982;28;20302;-65
2021/12/28 10:27:57;;;;;;;4.20;1.90;;;;;;;5.62;100.00;93902.31;4978516;28;20234;-65
2021/12/28 10:30:26;;;;;;;5.07;2.30;;;;;;;5.60;100.00;93905.41;4978813;28;20193;-64
2021/12/28 10:32:54;;;;;;;3.63;1.43;;;;;;;5.59;100.00;93908.53;4978270;28;20214;-66
2021/12/28 10:35:24;;;;;;;2.27;1.47;;;;;;;5.56;100.00;93893.09;4995595;28;20200;-64
2021/12/28 10:37:58;;;;;;;2.97;1.93;;;;;;;5.49;100.00;93898.59;4979038;28;20200;-65
2021/12/28 10:40:31;;;;;;;2.30;1.33;;;;;;;5.39;100.00;93873.22;4978724;28;20196;-73
2021/12/28 10:43:07;;;;;;;4.67;1.90;;;;;;;5.41;100.00;93889.81;4978234;28;20233;-67
2021/12/28 10:45:43;;;;;;;2.47;1.67;;;;;;;5.50;100.00;93873.09;4978656;28;20184;-67
2021/12/28 10:48:11;;;;;;;2.10;1.40;;;;;;;5.50;100.00;93873.09;4978126;28;20187;-67
2021/12/28 10:50:55;;;;;;;3.30;1.70;;;;;;;5.55;100.00;93875.31;4978174;28;20241;-67
2021/12/28 10:53:34;;;;;;;3.67;1.70;;;;;;;5.55;100.00;93869.91;4978582;28;20198;-67
2021/12/28 10:56:01;;;;;;;3.33;2.00;;;;;;;5.59;100.00;93879.53;4978396;28;20196;-68
2021/12/28 10:58:39;;;;;;;5.17;1.80;;;;;;;5.66;100.00;93870.53;4977982;28;20224;-65
2021/12/28 11:01:12;;;;;;;2.33;1.73;;;;;;;5.65;100.00;93860.88;4977878;28;20188;-60
2021/12/28 11:03:40;;;;;;;3.50;1.90;;;;;;;5.68;100.00;93862.78;4978262;28;20230;-61
2021/12/28 11:06:09;;;;;;;3.00;2.00;;;;;;;5.71;100.00;93851.09;4977954;28;20245;-63
2021/12/28 11:08:36;;;;;;;3.53;1.87;;;;;;;5.73;100.00;93854.19;4978077;28;20278;-60
2021/12/28 11:11:07;;;;;;;2.77;1.60;;;;;;;5.72;100.00;93844.53;4978724;28;20187;-62
2021/12/28 11:13:32;;;;;;;3.53;1.83;;;;;;;5.74;100.00;93836.75;4977930;28;20193;-62
2021/12/28 11:15:59;;;;;;;4.53;1.90;;;;;;;5.77;100.00;93844.06;4978385;28;20190;-68
2021/12/28 11:18:34;;;;;;;2.70;1.87;;;;;;;5.83;100.00;93826.19;4978444;28;20204;-68
2021/12/28 11:21:17;;;;;;;3.07;1.77;;;;;;;5.77;100.00;93816.97;5023120;23;20255;-64
2021/12/28 11:23:46;;;;;;;2.93;1.87;;;;;;;5.72;100.00;93825.56;4994945;28;20192;-67
2021/12/28 11:26:23;;;;;;;2.37;1.73;;;;;;;5.77;100.00;93825.09;4977772;28;20183;-68
2021/12/28 11:28:59;;;;;;;3.37;2.00;;;;;;;5.79;100.00;93826.22;4995176;28;20686;-66
2021/12/28 11:31:33;;;;;;;4.53;2.07;;;;;;;5.89;100.00;93813.69;4978128;28;20192;-62
2021/12/28 11:34:12;;;;;;;2.33;1.70;;;;;;;5.90;100.00;93815.25;4978104;28;20238;-63